Atlantic - Newfoundland: Past 24 Hour Conditions

 

Cartwright Airport

08:00 PM AST 22 February 2018
Disclaimer

This table is a summary of hourly weather conditions for the past 24 hours.
Please note that these observations might not always be representative of weather conditions over their associated marine area.

Date / Time
(AST)
Wind(knots) Conditions Visibility(km) Pressure(kPa) Air tempC) Relative humidity(%) Dew pointC) Wind Chill
22 February 2018
20:00 W 11 gust 20 Mainly Clear 24 102.0 -16 53 -23 -25
19:00 W 12 gust 19 Partly Cloudy 24 102.0 -15 48 -24 -25
18:00 WNW 6 Mainly Clear 24 102.0 -15 50 -24 -22
17:00 W 8 Mainly Sunny 24 102.0 -16 53 -23 -24
16:00 WSW 7 Mainly Sunny 24 102.0 -15 51 -23 -23
15:00 W 7 gust 19 Mainly Sunny 24 102.0 -15 53 -23 -23
14:00 WNW 12 gust 17 Drifting Snow 24 102.0 -16 53 -24 -26
13:00 WNW 11 gust 19 Drifting Snow 24 101.9 -16 56 -23 -26
12:00 WNW 14 gust 23 Drifting Snow 24 102.0 -17 56 -24 -28
11:00 WNW 12 gust 21 Drifting Snow 24 102.0 -17 58 -24 -28
10:00 WNW 11 gust 21 Drifting Snow 24 102.0 -18 61 -23 -27
9:00 WNW 16 gust 24 Drifting Snow 24 102.0 -18 65 -23 -30
8:00 WNW 12 gust 21 Drifting Snow 24 101.8 -19 71 -23 -29
7:00 NW 15 gust 25 Drifting Snow 24 101.5 -19 75 -22 -30
6:00 NW 17 gust 25 Drifting Snow 16 101.4 -18 79 -21 -31
5:00 NW 23 gust 33 Blowing Snow 10 101.2 -18 82 -20 -32
4:00 NW 16 gust 26 Drifting Snow 16 101.1 -18 79 -21 -30
3:00 NW 18 gust 26 Drifting Snow 11 100.9 -18 81 -21 -30
2:00 NW 20 gust 27 Light Snow 4 100.6 -18 83 -20 -31
1:00 NW 16 gust 22 Light Snow 4 100.4 -17 81 -20 -29
0:00 NW 17 gust 23 Light Snow 4 100.2 -17 83 -19 -29
21 February 2018
23:00 NNW 12 Light Snow 3 100.0 -16 86 -17 -25
22:00 NW 3 Light Snow 3 100.0 -16 85 -18 -21
21:00 SW 3 Light Snow 3 100.0 -17 85 -19 -21
20:00 WSW 4 Light Snow 5 100.1 -16 83 -18 -21

Zoom-in to make a selection

Map of Atlantic - Newfoundland marine weather areas Southwestern Grand Banks - 44138 Banquereau - 44139 Tail of the Bank - 44140 Nickerson Bank - 44251 Northeast Burgeo Bank - 44255 Blanc-Sablon Airport Cap Whittle Chevery Natashquan Airport Heath Point Miscou Island Grand Étang Ingonish Beach North Mountain St.Paul Island J.A. Douglas McCurdy Sydney Airport Charlottetown Airport East Point North Cape Argentia Bonavista Burgeo Cape Race Corner Brook Daniel's Harbour Englee Ferolle Point La Scie Port aux Basques Rocky Harbour Sagona Island St. Anthony Airport St. John's Int'l Airport St. Lawrence Stephenville Airport Twillingate Winterland Wreckhouse Cartwright Airport Mary's Harbour Grates Cove Pool's Island Marticot Island Long Pond Eskasoni (First Nations) Îles de la Madeleine Airport
Legend:
buoy Buoy
land station Land Station

Atlantic - Newfoundland Area

Another Region

What we are doing

Date modified: